Time;durP1;ratioP1;P1;durP2;ratioP2;P2;SDS_P1;SDS_P2;PMS_P1;PMS_P2;Temp;Humidity;BMP_temperature;BMP_pressure;BME280_temperature;BME280_humidity;BME280_pressure;Samples;Min_cycle;Max_cycle;Signal;HPM_P1;HPM_P2
2022/07/10 00:00:05;;;;;;;0.70;0.70;;;14.70;99.90;;;;;;4966138;28;20564;-68
2022/07/10 00:02:32;;;;;;;0.63;0.63;;;14.70;99.90;;;;;;4966836;28;20436;-67
2022/07/10 00:05:03;;;;;;;0.40;0.40;;;14.60;99.90;;;;;;4959983;28;20969;-67
2022/07/10 00:07:30;;;;;;;0.30;0.30;;;14.60;99.90;;;;;;4970571;28;21368;-67
2022/07/10 00:09:59;;;;;;;0.82;0.50;;;14.50;99.90;;;;;;4968287;28;20519;-66
2022/07/10 00:12:30;;;;;;;0.50;0.50;;;14.50;99.90;;;;;;4964098;28;20944;-66
2022/07/10 00:14:56;;;;;;;0.40;0.40;;;14.50;99.90;;;;;;4969844;28;20467;-67
2022/07/10 00:17:23;;;;;;;0.50;0.50;;;14.40;99.90;;;;;;4967557;28;20857;-67
2022/07/10 00:19:50;;;;;;;0.45;0.45;;;14.40;99.90;;;;;;4956305;28;20436;-67
2022/07/10 00:22:16;;;;;;;0.50;0.50;;;14.40;99.90;;;;;;4960257;28;20444;-67
2022/07/10 00:24:44;;;;;;;0.40;0.40;;;14.40;99.90;;;;;;4976275;28;20820;-67
2022/07/10 00:27:10;;;;;;;0.43;0.43;;;14.40;99.90;;;;;;4963213;28;20511;-67
2022/07/10 00:29:37;;;;;;;0.50;0.50;;;14.40;99.90;;;;;;4966601;28;20435;-67
2022/07/10 00:32:04;;;;;;;0.43;0.43;;;14.40;99.90;;;;;;4959284;28;20480;-66
2022/07/10 00:34:35;;;;;;;0.32;0.32;;;14.40;99.90;;;;;;4956251;28;20435;-66
2022/07/10 00:37:06;;;;;;;0.30;0.30;;;14.50;99.90;;;;;;4957026;28;20944;-67
2022/07/10 00:39:33;;;;;;;0.30;0.30;;;14.50;99.90;;;;;;4962026;28;20974;-67
2022/07/10 00:42:11;;;;;;;0.50;0.50;;;14.50;99.90;;;;;;4968329;28;20442;-67
2022/07/10 00:44:39;;;;;;;0.50;0.50;;;14.40;99.90;;;;;;4968267;28;20442;-67
2022/07/10 00:47:07;;;;;;;0.40;0.40;;;14.40;99.90;;;;;;4964213;28;20531;-66
2022/07/10 00:49:38;;;;;;;0.40;0.40;;;14.30;99.90;;;;;;4979493;28;20435;-67
2022/07/10 00:52:12;;;;;;;0.60;0.60;;;14.30;99.90;;;;;;4962014;28;20525;-67
2022/07/10 00:54:45;;;;;;;0.38;0.38;;;14.30;99.90;;;;;;4953726;28;20434;-67
2022/07/10 00:57:14;;;;;;;0.50;0.50;;;14.30;99.90;;;;;;4966957;28;20502;-67
2022/07/10 00:59:48;;;;;;;0.40;0.40;;;14.30;99.90;;;;;;4965891;28;20511;-67
2022/07/10 01:02:16;;;;;;;0.40;0.40;;;14.20;99.90;;;;;;4961094;28;20444;-67
2022/07/10 01:04:43;;;;;;;0.40;0.40;;;14.20;99.90;;;;;;4964138;28;20444;-67
2022/07/10 01:07:15;;;;;;;0.45;0.45;;;14.20;99.90;;;;;;4965649;28;20474;-67
2022/07/10 01:09:43;;;;;;;0.40;0.40;;;14.10;99.90;;;;;;4969153;28;20440;-67
2022/07/10 01:12:11;;;;;;;0.38;0.38;;;14.00;99.90;;;;;;4969474;28;20454;-67
2022/07/10 01:14:39;;;;;;;0.50;0.50;;;14.00;99.90;;;;;;4966887;28;20787;-71
2022/07/10 01:17:10;;;;;;;0.20;0.20;;;14.00;99.90;;;;;;4964794;28;21045;-67
2022/07/10 01:19:37;;;;;;;0.30;0.30;;;14.00;99.90;;;;;;4965356;28;20440;-68
2022/07/10 01:22:04;;;;;;;0.30;0.30;;;14.00;99.90;;;;;;4972070;28;20456;-67
2022/07/10 01:24:33;;;;;;;0.70;0.30;;;14.00;99.90;;;;;;4966133;28;20441;-67
2022/07/10 01:27:00;;;;;;;0.30;0.30;;;14.00;99.90;;;;;;4970239;28;20495;-67
2022/07/10 01:29:28;;;;;;;0.40;0.40;;;14.00;99.90;;;;;;4976001;28;20520;-66
2022/07/10 01:31:55;;;;;;;0.30;0.30;;;14.00;99.90;;;;;;4967966;28;20460;-68
2022/07/10 01:34:23;;;;;;;0.95;0.40;;;14.00;99.90;;;;;;4981576;28;21301;-67
2022/07/10 01:36:50;;;;;;;0.40;0.40;;;14.00;99.90;;;;;;4968790;28;20430;-68
2022/07/10 01:39:17;;;;;;;0.40;0.40;;;13.90;99.90;;;;;;4975896;28;20460;-68
2022/07/10 01:41:44;;;;;;;0.20;0.20;;;13.90;99.90;;;;;;4983163;28;20459;-68
2022/07/10 01:44:11;;;;;;;0.20;0.20;;;13.80;99.90;;;;;;4957884;28;20567;-67
2022/07/10 01:46:48;;;;;;;0.40;0.40;;;13.80;99.90;;;;;;4959725;28;20447;-68
2022/07/10 01:49:16;;;;;;;0.30;0.30;;;13.90;99.90;;;;;;4953834;28;20445;-67
2022/07/10 01:51:45;;;;;;;0.20;0.20;;;13.80;99.90;;;;;;4955315;28;20486;-67
2022/07/10 01:54:12;;;;;;;0.20;0.20;;;13.80;99.90;;;;;;4962174;28;21211;-67
2022/07/10 01:56:42;;;;;;;0.80;0.40;;;13.80;99.90;;;;;;4959004;28;20438;-68
2022/07/10 01:59:09;;;;;;;0.20;0.20;;;13.80;99.90;;;;;;4966884;28;20851;-67
2022/07/10 02:01:36;;;;;;;0.30;0.30;;;13.80;99.90;;;;;;4963390;28;20515;-67
2022/07/10 02:06:48;;;;;;;0.20;0.20;;;13.80;99.90;;;;;;4959326;28;20436;-68
2022/07/10 02:09:16;;;;;;;0.30;0.30;;;13.90;99.90;;;;;;4967125;28;20437;-73
2022/07/10 02:11:42;;;;;;;0.30;0.30;;;13.90;99.90;;;;;;4965436;28;20443;-69
2022/07/10 02:14:09;;;;;;;0.38;0.38;;;13.90;99.90;;;;;;4957655;28;20436;-69
2022/07/10 02:16:39;;;;;;;0.30;0.30;;;13.90;99.90;;;;;;4957404;28;20469;-68
2022/07/10 02:19:06;;;;;;;0.47;0.47;;;13.90;99.90;;;;;;4966988;28;20432;-67
2022/07/10 02:21:32;;;;;;;0.28;0.28;;;13.90;99.90;;;;;;4963363;28;20523;-67
2022/07/10 02:23:59;;;;;;;0.35;0.35;;;13.80;99.90;;;;;;4966180;28;20941;-67
2022/07/10 02:26:26;;;;;;;0.30;0.30;;;13.90;99.90;;;;;;4963680;28;20448;-67
2022/07/10 02:28:52;;;;;;;0.30;0.30;;;13.90;99.90;;;;;;4961199;28;20442;-67
2022/07/10 02:31:21;;;;;;;0.30;0.30;;;13.80;99.90;;;;;;4966343;28;20519;-67
2022/07/10 02:33:48;;;;;;;0.47;0.47;;;13.70;99.90;;;;;;4958897;28;20940;-67
2022/07/10 02:36:15;;;;;;;1.70;0.40;;;13.60;99.90;;;;;;4963178;28;20442;-66
2022/07/10 02:38:42;;;;;;;0.20;0.20;;;13.60;99.90;;;;;;4969327;28;20511;-67
2022/07/10 02:41:09;;;;;;;0.30;0.30;;;13.50;99.90;;;;;;4964170;28;20490;-66
2022/07/10 02:43:35;;;;;;;1.20;0.30;;;13.50;99.90;;;;;;4951876;28;20494;-67
2022/07/10 02:46:03;;;;;;;0.30;0.30;;;13.40;99.90;;;;;;4961476;28;20441;-67
2022/07/10 02:48:30;;;;;;;0.40;0.40;;;13.40;99.90;;;;;;4957937;28;20445;-67
2022/07/10 02:50:56;;;;;;;0.40;0.40;;;13.30;99.90;;;;;;4967329;28;20840;-67
2022/07/10 02:53:23;;;;;;;0.38;0.38;;;13.30;99.90;;;;;;4954512;28;20434;-67
2022/07/10 02:55:50;;;;;;;0.30;0.30;;;13.30;99.90;;;;;;4962561;28;20519;-67
2022/07/10 02:58:17;;;;;;;0.20;0.20;;;13.30;99.90;;;;;;4958925;28;20461;-68
2022/07/10 03:00:47;;;;;;;0.28;0.28;;;13.30;99.90;;;;;;4965568;28;20467;-66
2022/07/10 03:03:16;;;;;;;0.28;0.28;;;13.30;99.90;;;;;;4958729;28;20548;-67
2022/07/10 03:05:47;;;;;;;0.40;0.40;;;13.40;99.90;;;;;;4966259;28;22341;-67
2022/07/10 03:08:14;;;;;;;0.37;0.37;;;13.40;99.90;;;;;;4956739;28;20990;-66
2022/07/10 03:10:40;;;;;;;0.30;0.30;;;13.50;99.90;;;;;;4965130;28;20437;-67
2022/07/10 03:13:07;;;;;;;0.25;0.25;;;13.50;99.90;;;;;;4961467;28;20442;-67
2022/07/10 03:15:34;;;;;;;0.30;0.30;;;13.40;99.90;;;;;;4964911;28;20454;-67
2022/07/10 03:18:01;;;;;;;0.30;0.30;;;13.40;99.90;;;;;;4962948;28;20522;-66
2022/07/10 03:20:28;;;;;;;0.40;0.40;;;13.40;99.90;;;;;;4963017;28;20436;-67
2022/07/10 03:22:54;;;;;;;0.20;0.20;;;13.40;99.90;;;;;;4950055;28;20438;-67
2022/07/10 03:25:21;;;;;;;0.40;0.40;;;13.30;99.90;;;;;;4952975;28;20453;-67
2022/07/10 03:27:48;;;;;;;0.33;0.33;;;13.30;99.90;;;;;;4966878;28;20435;-67
2022/07/10 03:30:15;;;;;;;0.25;0.20;;;13.20;99.90;;;;;;4957975;28;20780;-67
2022/07/10 03:32:41;;;;;;;0.40;0.40;;;13.10;99.90;;;;;;4962237;28;20438;-67
2022/07/10 03:35:08;;;;;;;0.40;0.40;;;13.00;99.90;;;;;;4960283;28;20436;-67
2022/07/10 03:37:35;;;;;;;0.80;0.40;;;12.90;99.90;;;;;;4967313;28;20460;-67
2022/07/10 03:40:02;;;;;;;0.30;0.30;;;12.90;99.90;;;;;;4957650;28;20531;-67
2022/07/10 03:42:29;;;;;;;0.30;0.30;;;12.90;99.90;;;;;;4965709;28;20440;-67
2022/07/10 03:44:56;;;;;;;0.35;0.35;;;12.90;99.90;;;;;;4962021;28;20446;-66
2022/07/10 03:47:23;;;;;;;0.30;0.30;;;12.90;99.90;;;;;;4953146;28;20524;-66
2022/07/10 03:49:49;;;;;;;0.30;0.30;;;13.00;99.90;;;;;;4958426;28;20471;-67
2022/07/10 03:52:16;;;;;;;0.30;0.30;;;13.00;99.90;;;;;;4961553;28;20443;-66
2022/07/10 03:54:43;;;;;;;0.20;0.20;;;13.10;99.90;;;;;;4960144;28;20501;-67
2022/07/10 03:59:55;;;;;;;0.40;0.40;;;13.20;99.90;;;;;;4957643;28;20450;-67
2022/07/10 04:02:22;;;;;;;0.30;0.30;;;13.20;99.90;;;;;;4965988;28;20444;-67
2022/07/10 04:04:49;;;;;;;0.30;0.30;;;13.20;99.90;;;;;;4958188;28;20440;-66
2022/07/10 04:07:16;;;;;;;0.30;0.30;;;13.20;99.90;;;;;;4960644;28;20492;-67
2022/07/10 04:09:43;;;;;;;0.20;0.20;;;13.20;99.90;;;;;;4963946;28;20444;-67
2022/07/10 04:12:09;;;;;;;0.30;0.30;;;13.20;99.90;;;;;;4961242;28;20448;-68
2022/07/10 04:14:36;;;;;;;0.60;0.40;;;13.20;99.90;;;;;;4955747;28;20438;-67
2022/07/10 04:17:03;;;;;;;0.30;0.30;;;13.20;99.90;;;;;;4957838;28;20436;-67
2022/07/10 04:19:30;;;;;;;0.30;0.30;;;13.20;99.90;;;;;;4969469;28;20426;-67
2022/07/10 04:21:57;;;;;;;0.22;0.22;;;13.20;99.90;;;;;;4953375;28;20437;-66
2022/07/10 04:24:23;;;;;;;0.70;0.30;;;13.20;99.90;;;;;;4963180;28;20444;-66
2022/07/10 04:26:50;;;;;;;0.32;0.32;;;13.20;99.90;;;;;;4956917;28;20450;-67
2022/07/10 04:29:17;;;;;;;0.40;0.40;;;13.20;99.90;;;;;;4957507;28;20894;-67
2022/07/10 04:31:44;;;;;;;0.28;0.28;;;13.20;99.90;;;;;;4962020;28;20801;-67
2022/07/10 04:34:11;;;;;;;0.30;0.30;;;13.40;99.90;;;;;;4966749;28;20436;-66
2022/07/10 04:36:37;;;;;;;0.35;0.35;;;13.50;99.90;;;;;;4959025;28;20432;-67
2022/07/10 04:39:04;;;;;;;0.30;0.30;;;13.60;99.90;;;;;;4967121;28;20440;-67
2022/07/10 04:41:31;;;;;;;0.20;0.20;;;13.80;99.90;;;;;;4952839;28;20532;-67
2022/07/10 04:43:58;;;;;;;0.30;0.30;;;13.90;99.90;;;;;;4953442;28;20472;-67
2022/07/10 04:46:24;;;;;;;0.63;0.47;;;14.00;99.90;;;;;;4961001;28;20445;-67
2022/07/10 04:48:51;;;;;;;1.00;0.35;;;14.20;99.90;;;;;;4958725;28;20441;-66
2022/07/10 04:51:18;;;;;;;0.17;0.17;;;14.80;99.90;;;;;;4958206;28;20982;-66
2022/07/10 04:53:47;;;;;;;0.20;0.20;;;15.10;99.90;;;;;;4958450;28;20432;-68
2022/07/10 04:56:14;;;;;;;0.20;0.20;;;15.60;99.90;;;;;;4963867;28;20849;-66
2022/07/10 04:58:40;;;;;;;0.20;0.20;;;16.10;99.90;;;;;;4966355;28;21013;-66
2022/07/10 05:01:17;;;;;;;0.30;0.30;;;16.30;99.90;;;;;;4958009;28;20968;-66
2022/07/10 05:03:44;;;;;;;0.40;0.40;;;16.50;99.90;;;;;;4963496;28;20444;-67
2022/07/10 05:06:13;;;;;;;0.30;0.30;;;16.70;99.90;;;;;;4957761;28;20454;-66
2022/07/10 05:08:40;;;;;;;0.20;0.20;;;17.10;99.90;;;;;;4966641;28;20440;-67
2022/07/10 05:11:07;;;;;;;0.30;0.30;;;17.30;99.90;;;;;;4956395;28;20575;-66
2022/07/10 05:13:34;;;;;;;0.20;0.20;;;17.30;99.90;;;;;;4964433;28;20447;-67
2022/07/10 05:16:05;;;;;;;0.20;0.20;;;17.50;99.90;;;;;;4968593;28;20821;-66
2022/07/10 05:18:32;;;;;;;0.20;0.20;;;17.60;99.90;;;;;;4961003;28;20534;-66
2022/07/10 05:21:02;;;;;;;0.20;0.20;;;17.50;99.90;;;;;;4965956;28;20480;-66
2022/07/10 05:23:28;;;;;;;0.20;0.20;;;16.90;99.90;;;;;;4962108;28;20481;-69
2022/07/10 05:25:55;;;;;;;0.20;0.20;;;16.20;99.90;;;;;;4959415;28;20444;-65
2022/07/10 05:28:23;;;;;;;0.22;0.22;;;15.80;99.90;;;;;;4957510;28;20495;-66
2022/07/10 05:30:50;;;;;;;0.30;0.30;;;15.60;99.90;;;;;;4963304;28;20515;-68
2022/07/10 05:33:18;;;;;;;0.20;0.20;;;15.80;99.90;;;;;;4963648;28;20525;-66
2022/07/10 05:35:45;;;;;;;0.30;0.30;;;16.40;99.90;;;;;;4958158;28;20462;-65
2022/07/10 05:38:11;;;;;;;0.30;0.30;;;17.10;99.90;;;;;;4962380;28;20452;-66
2022/07/10 05:40:38;;;;;;;0.20;0.20;;;17.80;99.90;;;;;;4966344;28;20438;-66
2022/07/10 05:43:05;;;;;;;0.30;0.30;;;18.20;99.90;;;;;;4963448;28;20812;-67
2022/07/10 05:45:32;;;;;;;0.30;0.30;;;18.40;99.90;;;;;;4965308;28;20440;-66
2022/07/10 05:47:59;;;;;;;0.40;0.40;;;19.00;99.90;;;;;;4960532;28;20444;-66
2022/07/10 05:50:25;;;;;;;0.17;0.17;;;19.50;99.90;;;;;;4961622;28;20432;-66
2022/07/10 05:52:52;;;;;;;0.10;0.10;;;20.40;99.90;;;;;;4961597;28;20528;-68
2022/07/10 05:55:19;;;;;;;0.10;0.10;;;20.90;99.90;;;;;;4953875;28;20472;-66
2022/07/10 05:57:50;;;;;;;0.30;0.30;;;21.40;99.90;;;;;;4950693;28;20467;-65
2022/07/10 06:00:19;;;;;;;0.10;0.10;;;20.90;99.90;;;;;;4958000;28;20437;-65
2022/07/10 06:02:46;;;;;;;0.20;0.20;;;20.60;99.90;;;;;;4975709;28;20432;-67
2022/07/10 06:05:13;;;;;;;0.40;0.27;;;20.40;99.90;;;;;;4954377;28;20448;-66
2022/07/10 06:07:40;;;;;;;0.20;0.20;;;20.50;99.90;;;;;;4960859;28;20442;-66
2022/07/10 06:10:07;;;;;;;0.20;0.20;;;20.80;99.90;;;;;;4953636;28;20919;-66
2022/07/10 06:12:34;;;;;;;0.40;0.40;;;20.70;99.90;;;;;;4958856;28;20794;-67
2022/07/10 06:15:01;;;;;;;0.70;0.30;;;20.70;99.90;;;;;;4955299;28;20814;-66
2022/07/10 06:17:28;;;;;;;0.50;0.30;;;20.40;99.90;;;;;;4953032;28;20532;-67
2022/07/10 06:19:54;;;;;;;0.28;0.28;;;20.10;99.90;;;;;;4963439;28;20440;-66
2022/07/10 06:22:30;;;;;;;0.20;0.20;;;20.20;99.90;;;;;;4959358;28;21295;-66
2022/07/10 06:25:05;;;;;;;0.20;0.20;;;20.10;99.90;;;;;;4956805;28;20562;-66
2022/07/10 06:27:33;;;;;;;0.20;0.20;;;20.10;99.90;;;;;;4959636;28;20442;-65
2022/07/10 06:30:01;;;;;;;0.20;0.20;;;20.10;99.90;;;;;;4958956;28;20436;-66
2022/07/10 06:32:28;;;;;;;0.20;0.20;;;19.70;99.90;;;;;;4957464;28;20440;-65
2022/07/10 06:34:55;;;;;;;0.30;0.30;;;19.20;99.90;;;;;;4958437;28;20926;-66
2022/07/10 06:37:22;;;;;;;0.30;0.30;;;18.90;99.90;;;;;;4958613;28;20434;-65
2022/07/10 06:39:54;;;;;;;0.30;0.30;;;18.10;99.90;;;;;;4968723;28;20430;-65
2022/07/10 06:42:21;;;;;;;0.30;0.30;;;17.60;99.90;;;;;;4961734;28;20523;-67
2022/07/10 06:44:48;;;;;;;0.20;0.20;;;17.40;99.90;;;;;;4962698;28;20428;-65
2022/07/10 06:50:08;;;;;;;0.28;0.28;;;17.50;99.90;;;;;;4957895;28;20845;-63
2022/07/10 06:52:35;;;;;;;0.30;0.30;;;17.40;99.90;;;;;;4957993;28;21606;-65
2022/07/10 06:55:03;;;;;;;0.17;0.17;;;17.60;99.90;;;;;;4962681;28;20436;-65
2022/07/10 06:57:32;;;;;;;0.20;0.20;;;18.10;99.90;;;;;;4957991;28;20437;-66
2022/07/10 06:59:59;;;;;;;0.20;0.20;;;18.60;99.90;;;;;;4950882;28;20444;-67
2022/07/10 07:02:26;;;;;;;0.25;0.25;;;19.70;99.90;;;;;;4951499;28;20438;-66
2022/07/10 07:04:53;;;;;;;0.20;0.20;;;20.70;99.90;;;;;;4964103;28;20489;-66
2022/07/10 07:07:19;;;;;;;0.30;0.30;;;20.60;99.90;;;;;;4964335;28;20808;-67
2022/07/10 07:09:52;;;;;;;0.70;0.22;;;20.80;99.90;;;;;;4957301;28;20445;-66
2022/07/10 07:12:19;;;;;;;0.20;0.20;;;21.30;99.90;;;;;;4961887;28;20779;-66
2022/07/10 07:14:49;;;;;;;0.20;0.20;;;21.60;99.90;;;;;;4959443;28;20873;-65
2022/07/10 07:17:21;;;;;;;0.20;0.20;;;21.50;99.90;;;;;;4962340;28;20475;-66
2022/07/10 07:25:23;;;;;;;0.17;0.17;;;21.90;97.60;;;;;;4958177;28;20527;-67
2022/07/10 07:27:52;;;;;;;0.20;0.20;;;21.70;96.90;;;;;;4954793;28;21267;-65
2022/07/10 07:30:19;;;;;;;0.10;0.10;;;21.70;97.80;;;;;;4963378;28;20437;-67
2022/07/10 07:32:47;;;;;;;0.17;0.17;;;22.30;98.40;;;;;;4974434;28;20450;-66
2022/07/10 07:35:15;;;;;;;0.60;0.40;;;22.80;98.00;;;;;;4955293;28;20511;-66
2022/07/10 07:37:45;;;;;;;0.20;0.20;;;22.60;97.20;;;;;;4955733;28;20444;-66
2022/07/10 07:40:14;;;;;;;0.20;0.20;;;22.00;97.50;;;;;;4955200;28;20432;-66
2022/07/10 07:42:41;;;;;;;0.70;0.20;;;21.30;98.00;;;;;;4953344;28;20956;-65
2022/07/10 07:45:09;;;;;;;0.20;0.20;;;21.10;99.00;;;;;;4958214;28;21069;-66
2022/07/10 07:47:47;;;;;;;0.20;0.20;;;21.50;98.90;;;;;;4975858;28;20500;-66
2022/07/10 07:50:15;;;;;;;0.15;0.15;;;21.80;98.60;;;;;;4963262;28;20436;-61
2022/07/10 07:52:46;;;;;;;0.20;0.20;;;21.70;98.10;;;;;;4958594;28;20764;-65
2022/07/10 07:55:15;;;;;;;0.20;0.20;;;22.10;97.50;;;;;;4960936;28;20519;-65
2022/07/10 07:57:42;;;;;;;0.40;0.20;;;22.50;98.30;;;;;;4965071;28;20446;-66
2022/07/10 08:00:11;;;;;;;0.20;0.20;;;23.50;96.90;;;;;;4955604;28;20511;-65
2022/07/10 08:02:41;;;;;;;0.20;0.20;;;23.50;96.10;;;;;;4963370;28;20532;-65
2022/07/10 08:05:09;;;;;;;0.20;0.20;;;22.30;95.80;;;;;;4959995;28;20848;-64
2022/07/10 08:07:44;;;;;;;0.20;0.20;;;21.20;96.80;;;;;;4958589;28;20822;-67
2022/07/10 08:10:13;;;;;;;0.20;0.20;;;20.90;97.00;;;;;;4952127;28;20444;-65
2022/07/10 08:12:41;;;;;;;0.20;0.20;;;20.40;97.40;;;;;;4953365;28;20450;-65
2022/07/10 08:15:10;;;;;;;0.20;0.20;;;19.80;97.80;;;;;;4961762;28;20432;-65
2022/07/10 08:17:37;;;;;;;0.20;0.20;;;19.40;98.40;;;;;;4967281;28;20936;-66
2022/07/10 08:20:06;;;;;;;0.20;0.20;;;19.50;98.60;;;;;;4963009;28;20428;-66
2022/07/10 08:22:33;;;;;;;0.20;0.20;;;19.80;98.90;;;;;;4963185;28;20824;-67
2022/07/10 08:25:02;;;;;;;0.50;0.32;;;20.00;98.00;;;;;;4960847;28;20509;-69
2022/07/10 08:27:29;;;;;;;0.20;0.20;;;19.40;98.40;;;;;;4963645;28;20454;-67
2022/07/10 08:29:55;;;;;;;0.20;0.20;;;19.20;98.90;;;;;;4986724;28;20445;-67
2022/07/10 08:32:23;;;;;;;0.25;0.25;;;19.10;98.80;;;;;;4955687;28;20445;-66
2022/07/10 08:34:50;;;;;;;0.20;0.20;;;19.10;99.30;;;;;;4963154;28;20442;-65
2022/07/10 08:37:16;;;;;;;0.20;0.20;;;19.20;99.50;;;;;;4967631;28;20439;-65
2022/07/10 08:39:43;;;;;;;0.85;0.28;;;19.50;99.90;;;;;;4975216;28;20521;-67
2022/07/10 08:42:11;;;;;;;0.10;0.10;;;19.70;99.30;;;;;;4965129;28;20452;-67
2022/07/10 08:44:38;;;;;;;0.10;0.10;;;20.30;99.20;;;;;;4970106;28;20440;-66
2022/07/10 08:47:07;;;;;;;0.20;0.20;;;20.70;97.80;;;;;;4974611;28;20511;-67
2022/07/10 08:49:35;;;;;;;0.17;0.17;;;20.90;97.90;;;;;;4997093;28;20446;-67
2022/07/10 08:52:21;;;;;;;0.20;0.20;;;21.20;97.90;;;;;;4968262;28;20449;-69
2022/07/10 08:54:55;;;;;;;0.20;0.20;;;21.00;97.20;;;;;;4969503;28;20808;-65
2022/07/10 08:57:24;;;;;;;0.30;0.30;;;21.00;97.80;;;;;;4966914;28;20922;-67
2022/07/10 08:59:51;;;;;;;0.30;0.30;;;21.20;97.70;;;;;;4964980;28;20511;-68
2022/07/10 09:02:18;;;;;;;0.25;0.25;;;21.50;98.10;;;;;;4963406;28;20787;-69
2022/07/10 09:04:46;;;;;;;0.20;0.20;;;21.90;98.00;;;;;;4967697;28;20872;-68
2022/07/10 09:07:13;;;;;;;0.30;0.30;;;22.80;98.50;;;;;;4956498;28;20440;-67
2022/07/10 09:10:04;;;;;;;0.20;0.20;;;22.80;97.00;;;;;;4954542;28;20441;-67
2022/07/10 09:12:52;;;;;;;0.10;0.10;;;22.30;96.90;;;;;;4968690;28;20448;-68
2022/07/10 09:15:22;;;;;;;0.20;0.20;;;21.40;97.50;;;;;;4960265;28;20436;-67
2022/07/10 09:17:50;;;;;;;0.20;0.20;;;21.20;98.20;;;;;;4954966;28;20946;-68
2022/07/10 09:20:30;;;;;;;0.20;0.20;;;21.20;97.90;;;;;;4960165;28;20863;-67
2022/07/10 09:23:14;;;;;;;0.20;0.20;;;21.10;97.70;;;;;;4955517;28;20488;-68
2022/07/10 09:25:41;;;;;;;0.20;0.20;;;20.70;97.50;;;;;;4970153;28;20525;-63
2022/07/10 09:28:10;;;;;;;0.30;0.30;;;20.30;98.10;;;;;;4964769;28;20444;-63
2022/07/10 09:30:39;;;;;;;0.17;0.17;;;20.00;98.10;;;;;;4959641;28;20429;-63
2022/07/10 09:33:26;;;;;;;0.28;0.28;;;20.30;98.20;;;;;;4962232;28;20442;-63
2022/07/10 09:36:05;;;;;;;0.20;0.20;;;20.60;97.80;;;;;;4957098;28;20508;-65
2022/07/10 09:38:44;;;;;;;0.20;0.20;;;21.20;98.40;;;;;;4960395;28;20519;-63
2022/07/10 09:41:26;;;;;;;0.20;0.20;;;22.60;97.60;;;;;;4957038;28;20433;-64
2022/07/10 09:43:58;;;;;;;0.70;0.40;;;23.60;96.70;;;;;;4980777;28;20432;-63
2022/07/10 09:46:38;;;;;;;1.80;0.30;;;23.00;96.30;;;;;;4963616;28;20436;-63
2022/07/10 09:49:10;;;;;;;0.30;0.30;;;22.60;96.30;;;;;;4959457;28;20433;-64
2022/07/10 09:51:38;;;;;;;0.20;0.20;;;21.80;97.00;;;;;;4964590;28;20442;-67
2022/07/10 09:54:13;;;;;;;0.30;0.30;;;21.00;97.80;;;;;;4972217;28;20442;-66
2022/07/10 09:57:03;;;;;;;0.20;0.20;;;20.20;98.20;;;;;;4972154;28;20830;-66
2022/07/10 09:59:31;;;;;;;0.20;0.20;;;19.80;99.30;;;;;;4959939;28;20437;-67
2022/07/10 10:02:02;;;;;;;0.60;0.20;;;19.90;99.60;;;;;;4957847;28;20434;-66
2022/07/10 10:04:30;;;;;;;0.20;0.20;;;20.70;99.30;;;;;;4959568;28;20952;-68
2022/07/10 10:07:03;;;;;;;0.20;0.20;;;21.70;99.30;;;;;;4956557;28;20586;-64
2022/07/10 10:09:48;;;;;;;0.30;0.30;;;22.60;98.40;;;;;;4961312;28;21108;-65
2022/07/10 10:12:21;;;;;;;1.00;0.30;;;23.70;96.30;;;;;;4960491;28;20438;-66
2022/07/10 10:14:49;;;;;;;0.20;0.20;;;24.20;95.70;;;;;;4965776;28;20440;-66
2022/07/10 10:17:17;;;;;;;0.20;0.20;;;25.00;96.30;;;;;;4964887;28;20458;-66
2022/07/10 10:22:32;;;;;;;0.30;0.30;;;25.40;93.80;;;;;;4962589;28;20463;-66
2022/07/10 10:25:01;;;;;;;0.20;0.20;;;24.30;93.80;;;;;;4959377;28;20445;-65
2022/07/10 10:27:28;;;;;;;0.20;0.20;;;23.50;94.50;;;;;;4960657;28;20458;-66
2022/07/10 10:29:55;;;;;;;0.20;0.20;;;22.80;95.40;;;;;;4953175;28;20444;-66
2022/07/10 10:32:23;;;;;;;0.25;0.25;;;21.90;96.00;;;;;;4963753;28;20427;-66
2022/07/10 10:34:59;;;;;;;0.25;0.25;;;21.30;96.70;;;;;;4971054;28;20975;-64
2022/07/10 10:37:40;;;;;;;0.30;0.30;;;20.90;97.20;;;;;;4952530;28;20978;-66
2022/07/10 10:40:09;;;;;;;0.30;0.30;;;20.60;97.60;;;;;;4956951;28;21060;-66
2022/07/10 10:42:37;;;;;;;0.32;0.32;;;20.70;98.10;;;;;;4962181;28;20454;-66
2022/07/10 10:45:29;;;;;;;0.20;0.20;;;20.80;98.10;;;;;;4958068;28;20446;-64
2022/07/10 10:48:04;;;;;;;0.28;0.28;;;21.00;97.40;;;;;;4951165;28;20941;-66
2022/07/10 10:50:53;;;;;;;0.30;0.30;;;20.90;97.70;;;;;;4960014;28;20950;-67
2022/07/10 10:53:21;;;;;;;0.20;0.20;;;21.40;97.90;;;;;;4949643;28;20449;-66
2022/07/10 10:56:00;;;;;;;0.75;0.40;;;22.10;97.70;;;;;;4951775;28;20521;-67
2022/07/10 10:58:46;;;;;;;0.40;0.30;;;22.90;97.40;;;;;;4953820;28;20492;-67
2022/07/10 11:01:32;;;;;;;0.20;0.20;;;23.90;96.00;;;;;;4955454;28;20519;-68
2022/07/10 11:04:05;;;;;;;0.70;0.30;;;24.30;95.90;;;;;;4952552;28;20446;-65
2022/07/10 11:06:43;;;;;;;0.20;0.20;;;24.60;95.30;;;;;;4958211;28;22388;-66
2022/07/10 11:09:25;;;;;;;0.50;0.40;;;24.70;94.80;;;;;;4949819;28;20467;-66
2022/07/10 11:12:12;;;;;;;0.20;0.20;;;24.90;94.90;;;;;;4956086;28;20436;-65
2022/07/10 11:14:45;;;;;;;0.20;0.20;;;25.30;94.70;;;;;;4951300;28;20526;-66
2022/07/10 11:17:12;;;;;;;0.25;0.25;;;26.20;94.10;;;;;;4966832;28;20687;-66
2022/07/10 11:19:40;;;;;;;0.30;0.30;;;26.20;93.60;;;;;;4960812;28;20531;-66
2022/07/10 11:22:43;;;;;;;0.25;0.25;;;26.20;93.20;;;;;;4943478;28;20456;-65
2022/07/10 11:25:20;;;;;;;0.28;0.28;;;25.60;93.50;;;;;;5001053;28;20466;-65
2022/07/10 11:28:07;;;;;;;0.30;0.30;;;25.00;94.10;;;;;;4962436;28;20527;-62
2022/07/10 11:30:52;;;;;;;0.30;0.30;;;24.90;94.70;;;;;;4970446;28;20428;-63
2022/07/10 11:33:22;;;;;;;0.20;0.20;;;24.80;94.90;;;;;;4957556;28;20439;-63
2022/07/10 11:35:52;;;;;;;0.30;0.30;;;24.70;94.50;;;;;;4963218;28;20428;-66
2022/07/10 11:38:20;;;;;;;0.22;0.22;;;24.60;95.00;;;;;;4957381;28;20985;-64
2022/07/10 11:40:47;;;;;;;0.30;0.30;;;24.40;95.00;;;;;;4955896;28;21364;-66
2022/07/10 11:43:16;;;;;;;0.20;0.20;;;24.30;94.60;;;;;;4961659;28;20444;-65
2022/07/10 11:45:44;;;;;;;0.20;0.20;;;24.00;94.40;;;;;;4953181;28;20450;-65
2022/07/10 11:48:23;;;;;;;0.28;0.28;;;23.60;95.20;;;;;;4949503;28;20448;-65
2022/07/10 11:50:50;;;;;;;0.30;0.30;;;23.70;94.80;;;;;;4955637;28;20500;-65
2022/07/10 11:53:27;;;;;;;0.27;0.27;;;23.50;95.00;;;;;;4956620;28;20447;-65
2022/07/10 11:55:54;;;;;;;0.40;0.40;;;23.90;95.10;;;;;;4955845;28;20446;-66
2022/07/10 11:58:22;;;;;;;0.70;0.30;;;23.90;95.70;;;;;;4951448;28;20524;-65
2022/07/10 12:01:01;;;;;;;0.30;0.30;;;24.20;95.20;;;;;;4952965;28;20435;-65
2022/07/10 12:03:29;;;;;;;0.20;0.20;;;24.40;95.40;;;;;;4950350;28;20968;-64
2022/07/10 12:06:02;;;;;;;1.10;0.50;;;24.60;95.00;;;;;;4949899;28;20442;-66
2022/07/10 12:08:28;;;;;;;0.20;0.20;;;24.70;94.70;;;;;;4947901;28;20632;-64
2022/07/10 12:10:55;;;;;;;0.20;0.20;;;24.60;94.80;;;;;;4955279;28;20446;-64
2022/07/10 12:13:22;;;;;;;0.30;0.30;;;24.70;95.00;;;;;;4956424;28;21451;-63
2022/07/10 12:15:50;;;;;;;0.30;0.30;;;24.80;94.40;;;;;;4960647;28;20439;-66
2022/07/10 12:18:19;;;;;;;0.30;0.30;;;24.30;94.00;;;;;;4961763;28;20439;-66
2022/07/10 12:20:52;;;;;;;0.30;0.30;;;24.20;94.70;;;;;;4962070;28;20515;-66
2022/07/10 12:23:20;;;;;;;0.20;0.20;;;24.20;94.50;;;;;;4949960;28;20549;-67
2022/07/10 12:25:51;;;;;;;0.30;0.30;;;23.90;94.40;;;;;;4955931;28;20443;-66
2022/07/10 12:28:18;;;;;;;0.38;0.38;;;24.00;94.40;;;;;;4956173;28;20456;-68
2022/07/10 12:30:49;;;;;;;0.20;0.20;;;24.20;94.20;;;;;;4951410;28;20457;-66
2022/07/10 12:33:20;;;;;;;0.20;0.20;;;24.30;93.90;;;;;;4954125;28;20440;-66
2022/07/10 12:35:57;;;;;;;0.30;0.30;;;24.30;93.90;;;;;;4955361;28;20444;-64
2022/07/10 12:38:25;;;;;;;0.30;0.30;;;23.80;93.80;;;;;;4949420;28;20433;-65
2022/07/10 12:41:09;;;;;;;0.38;0.38;;;23.30;94.70;;;;;;4945213;28;20442;-66
2022/07/10 12:43:36;;;;;;;0.30;0.30;;;23.50;94.90;;;;;;4956013;28;20995;-64
2022/07/10 12:46:23;;;;;;;0.30;0.30;;;24.40;95.00;;;;;;4955785;28;20447;-65
2022/07/10 12:49:02;;;;;;;0.37;0.37;;;24.80;94.30;;;;;;4948510;28;20542;-63
2022/07/10 12:51:34;;;;;;;0.22;0.22;;;25.50;94.30;;;;;;4948701;28;20447;-65
2022/07/10 12:55:10;;;;;;;0.20;0.20;;;25.70;94.00;;;;;;4952666;28;20983;-64
2022/07/10 12:57:53;;;;;;;0.15;0.15;;;25.30;93.50;;;;;;4953437;28;20932;-65
2022/07/10 13:00:31;;;;;;;0.38;0.38;;;24.60;93.80;;;;;;4952940;28;20470;-66
2022/07/10 13:03:06;;;;;;;0.20;0.20;;;24.50;94.00;;;;;;4954162;28;20446;-65
2022/07/10 13:05:43;;;;;;;0.30;0.30;;;24.00;94.70;;;;;;4958284;28;20436;-65
2022/07/10 13:08:12;;;;;;;0.22;0.22;;;24.30;94.90;;;;;;4952450;28;20479;-64
2022/07/10 13:10:41;;;;;;;0.50;0.50;;;24.60;94.70;;;;;;4960978;28;20503;-64
2022/07/10 13:13:08;;;;;;;0.20;0.20;;;25.10;95.00;;;;;;4959072;28;21260;-63
2022/07/10 13:15:46;;;;;;;0.28;0.28;;;25.20;93.90;;;;;;4950468;28;20428;-66
2022/07/10 13:18:18;;;;;;;0.20;0.20;;;24.50;93.90;;;;;;4950826;28;20428;-65